^^
Station Historical Data
Daily Summary for August 11, 2017 Units:  Metric    English   Both
« Previous Day
Next Day »
Daily Weekly Monthly Yearly Custom
  High: Low: Average:
Temperature: 24.7 °C 2.2 °C 10.7 °C
Dew Point: 4.1 °C -13.1 °C -8.2 °C
Humidity: 57% 11% 27%
Wind Speed: 16.3km/h 0km/h 2.6km/h
Wind Gust: 20.9km/h - -
Wind- - WSW
Pressure: 1022.2 hPa 1018.5 hPa -
Precipitation: 0 mm    
Historical Graphs
 
 
Tabular Data for August 11, 2017
Time Temperature Dew Point Pressure Wind Wind Speed Wind Gust Humidity Rainfall Rate (Hourly) solar Conditions
00:03 7.7 °C -12.1 °C 1019.9 hPa Calm     23% 0 mm 0.0 W/m2
00:08 7.6 °C -11.7 °C 1020.2 hPa Calm     24% 0 mm 0.0 W/m2
00:13 7.8 °C -12.1 °C 1020.2 hPa Calm     23% 0 mm 0.0 W/m2
00:18 7.7 °C -12.1 °C 1019.9 hPa Calm     23% 0 mm 0.0 W/m2
00:24 7.6 °C -12.2 °C 1020.2 hPa Calm     23% 0 mm 0.0 W/m2
00:29 7.5 °C -12.3 °C 1020.2 hPa Calm     23% 0 mm 0.0 W/m2
00:34 7.4 °C -12.4 °C 1019.9 hPa Calm     23% 0 mm 0.0 W/m2
00:39 7.2 °C -12.6 °C 1019.9 hPa Calm     23% 0 mm 0.0 W/m2
00:50 6.7 °C -12.5 °C 1020.2 hPa Calm     24% 0 mm 0.0 W/m2
00:55 6.6 °C -12.6 °C 1019.9 hPa Calm     24% 0 mm 0.0 W/m2
01:00 6.7 °C -12 °C 1019.9 hPa Calm     25% 0 mm 0.0 W/m2
01:05 6.8 °C -12.4 °C 1019.9 hPa Calm     24% 0 mm 0.0 W/m2
01:10 6.7 °C -12 °C 1019.9 hPa Calm     25% 0 mm 0.0 W/m2
01:15 6.9 °C -12.3 °C 1019.9 hPa Calm     24% 0 mm 0.0 W/m2
01:21 6.8 °C -12.4 °C 1019.9 hPa Calm     24% 0 mm 0.0 W/m2
01:31 6.4 °C -12.2 °C 1019.9 hPa Calm     25% 0 mm 0.0 W/m2
01:42 6.3 °C -12.3 °C 1019.9 hPa Calm     25% 0 mm 0.0 W/m2
01:47 6.3 °C -12.3 °C 1019.9 hPa Calm     25% 0 mm 0.0 W/m2
01:52 6.2 °C -12.4 °C 1019.9 hPa Calm     25% 0 mm 0.0 W/m2
01:57 6.2 °C -12.4 °C 1019.9 hPa Calm     25% 0 mm 0.0 W/m2
02:02 6.3 °C -12.3 °C 1019.9 hPa Calm     25% 0 mm 0.0 W/m2
02:12 6.4 °C -12.2 °C 1019.9 hPa Calm     25% 0 mm 0.0 W/m2
02:17 6.3 °C -12.3 °C 1019.9 hPa Calm     25% 0 mm 0.0 W/m2
02:23 6.2 °C -11.9 °C 1019.5 hPa Calm     26% 0 mm 0.0 W/m2
02:28 6.1 °C -12.5 °C 1019.5 hPa Calm     25% 0 mm 0.0 W/m2
02:33 5.8 °C -12.7 °C 1019.5 hPa Calm     25% 0 mm 0.0 W/m2
02:38 5.6 °C -12.9 °C 1019.5 hPa Calm     25% 0 mm 0.0 W/m2
02:43 5.4 °C -12.6 °C 1019.5 hPa Calm     26% 0 mm 0.0 W/m2
02:48 5.3 °C -12.7 °C 1019.5 hPa Calm     26% 0 mm 0.0 W/m2
02:54 5.2 °C -12.8 °C 1019.5 hPa Calm     26% 0 mm 0.0 W/m2
02:59 5.1 °C -12.4 °C 1019.5 hPa Calm     27% 0 mm 0.0 W/m2
03:04 5.1 °C -12.4 °C 1019.5 hPa Calm     27% 0 mm 0.0 W/m2
03:09 5.1 °C -12.4 °C 1019.5 hPa Calm     27% 0 mm 0.0 W/m2
03:14 5 °C -12 °C 1019.5 hPa Calm     28% 0 mm 0.0 W/m2
03:20 5 °C -12.5 °C 1019.5 hPa Calm     27% 0 mm 0.0 W/m2
03:25 5 °C -12.5 °C 1019.5 hPa Calm     27% 0 mm 0.0 W/m2
03:30 4.8 °C -12.6 °C 1019.5 hPa Calm     27% 0 mm 0.0 W/m2
03:35 4.7 °C -12.7 °C 1019.5 hPa Calm     27% 0 mm 0.0 W/m2
03:45 4.6 °C -12.4 °C 1019.5 hPa Calm     28% 0 mm 0.0 W/m2
03:51 4.6 °C -12.4 °C 1019.5 hPa Calm     28% 0 mm 0.0 W/m2
03:56 4.4 °C -12.5 °C 1019.5 hPa Calm     28% 0 mm 0.0 W/m2
04:01 4.4 °C -12.5 °C 1019.9 hPa Calm     28% 0 mm 0.0 W/m2
04:07 4.3 °C -12.2 °C 1019.9 hPa Calm     29% 0 mm 0.0 W/m2
04:17 4.3 °C -12.6 °C 1019.9 hPa Calm     28% 0 mm 0.0 W/m2
04:33 4 °C -12.4 °C 1019.9 hPa Calm     29% 0 mm 0.0 W/m2
04:38 3.8 °C -12.6 °C 1020.2 hPa Calm     29% 0 mm 0.0 W/m2
04:43 3.6 °C -12.4 °C 1020.2 hPa Calm     30% 0 mm 0.0 W/m2
04:48 3.4 °C -12.5 °C 1020.2 hPa Calm     30% 0 mm 0.0 W/m2
04:53 3.3 °C -12.6 °C 1020.2 hPa Calm     30% 0 mm 0.0 W/m2
04:59 3.2 °C -12.7 °C 1020.2 hPa Calm     30% 0 mm 0.0 W/m2
05:09 3.5 °C -12.5 °C 1020.2 hPa Calm     30% 0 mm 0.0 W/m2
05:14 3.5 °C -12.5 °C 1020.2 hPa Calm     30% 0 mm 0.0 W/m2
05:19 3.5 °C -12.5 °C 1020.2 hPa Calm     30% 0 mm 0.0 W/m2
05:29 3.4 °C -12.5 °C 1020.5 hPa Calm     30% 0 mm 0.0 W/m2
05:40 3.3 °C -13.1 °C 1020.5 hPa Calm     29% 0 mm 0.0 W/m2
05:51 3.2 °C -12.7 °C 1020.5 hPa Calm     30% 0 mm 0.0 W/m2
06:01 2.9 °C -13 °C 1020.9 hPa Calm     30% 0 mm 0.0 W/m2
06:06 2.6 °C -12.8 °C 1021.2 hPa Calm     31% 0 mm 0.0 W/m2
06:12 2.3 °C -12.3 °C 1020.9 hPa Calm     33% 0 mm 0.0 W/m2
06:17 2.2 °C -12.8 °C 1021.2 hPa Calm     32% 0 mm 0.0 W/m2
06:22 2.2 °C -12.1 °C 1021.2 hPa Calm     34% 0 mm 0.0 W/m2
06:27 2.2 °C -11.3 °C 1021.2 hPa Calm     36% 0 mm 5.0 W/m2
06:34 2.2 °C -11.7 °C 1021.2 hPa Calm     35% 0 mm 7.0 W/m2
07:08 3.6 °C -9.4 °C 1021.6 hPa Calm     38% 0 mm 83.0 W/m2
07:13 4.1 °C -9 °C 1021.6 hPa Calm     38% 0 mm 100.0 W/m2
07:29 5.8 °C -7.8 °C 1021.6 hPa Calm     37% 0 mm 139.0 W/m2
07:44 7.2 °C -6.9 °C 1021.9 hPa Calm     36% 0 mm 200.0 W/m2
07:54 8.9 °C -5.7 °C 1021.9 hPa Calm     35% 0 mm 255.0 W/m2
08:10 10.6 °C -4.2 °C 1022.2 hPa Calm     35% 0 mm 299.0 W/m2
08:25 11.6 °C -2.2 °C 1022.2 hPa Calm     38% 0 mm 350.0 W/m2
08:41 12.4 °C -2.3 °C 1022.2 hPa Calm     36% 0 mm 394.0 W/m2
08:56 12.8 °C -2.3 °C 1022.2 hPa Calm     35% 0 mm 432.0 W/m2
09:17 13.2 °C -1.9 °C 1022.2 hPa Calm     35% 0 mm 483.0 W/m2
09:42 14.7 °C -3.2 °C 1022.2 hPa Calm     29% 0 mm 547.0 W/m2
10:08 15.2 °C -1.4 °C 1022.2 hPa Calm     32% 0 mm 596.0 W/m2
10:34 16.5 °C -1.1 °C 1022.2 hPa Calm     30% 0 mm 636.0 W/m2
11:00 17.3 °C -1.4 °C 1021.6 hPa Calm     28% 0 mm 664.0 W/m2
11:31 18.7 °C -1.7 °C 1021.2 hPa Calm     25% 0 mm 684.0 W/m2
12:08 21.2 °C -3.3 °C 1020.5 hPa Calm     19% 0 mm 689.0 W/m2
12:43 22.5 °C -3.8 °C 1019.9 hPa Calm     17% 0 mm 668.0 W/m2
13:14 23.2 °C -4.9 °C 1019.5 hPa Calm     15% 0 mm 631.0 W/m2
13:40 24.4 °C -8 °C 1019.2 hPa Calm     11% 0 mm 591.0 W/m2
14:00 24.6 °C -7.8 °C 1018.8 hPa Calm     11% 0 mm 548.0 W/m2
14:16 23.9 °C -4.3 °C 1018.8 hPa Calm   9.7 km/h 15% 0 mm 519.0 W/m2
14:31 23.9 °C -5.2 °C 1018.8 hPa WNW 7.9 km/h 9.7 km/h 14% 0 mm 485.0 W/m2
14:46 24.6 °C -4.7 °C 1018.5 hPa Calm   8 km/h 14% 0 mm 448.0 W/m2
15:07 24.7 °C -4.6 °C 1018.5 hPa Calm   3.2 km/h 14% 0 mm 408.0 W/m2
15:17 24.2 °C -5 °C 1018.5 hPa Calm   6.4 km/h 14% 0 mm 360.0 W/m2
15:32 24.2 °C -5 °C 1018.5 hPa Calm     14% 0 mm 316.0 W/m2
15:43 24.1 °C -6 °C 1018.5 hPa Calm     13% 0 mm 287.0 W/m2
16:03 24.3 °C -5.9 °C 1018.5 hPa Calm   6.4 km/h 13% 0 mm 239.0 W/m2
16:18 23.9 °C -4.3 °C 1018.5 hPa WNW 13 km/h 17.7 km/h 15% 0 mm 181.0 W/m2
16:30 23.3 °C -3.1 °C 1018.5 hPa WNW 13 km/h 19.3 km/h 17% 0 mm 142.0 W/m2
16:42 22.4 °C -3.1 °C 1018.8 hPa West 13 km/h 19.3 km/h 18% 0 mm 88.0 W/m2
16:54 21.8 °C -2.2 °C 1018.8 hPa West 14.3 km/h 20.9 km/h 20% 0 mm 56.0 W/m2
17:04 21.3 °C -1.9 °C 1018.8 hPa West 13 km/h 19.3 km/h 21% 0 mm 21.0 W/m2
17:21 20.3 °C -1.5 °C 1018.8 hPa West 14.3 km/h 19.3 km/h 23% 0 mm 7.0 W/m2
17:26 20 °C -1.2 °C 1018.8 hPa West 14.3 km/h 20.9 km/h 24% 0 mm 5.0 W/m2
17:35 19.6 °C -1 °C 1019.2 hPa WSW 14.3 km/h 19.3 km/h 25% 0 mm 0.0 W/m2
17:39 19.4 °C -1.1 °C 1019.2 hPa WSW 14.3 km/h 19.3 km/h 25% 0 mm 0.0 W/m2
17:46 19.2 °C -0.8 °C 1019.5 hPa WSW 9.7 km/h 16.1 km/h 26% 0 mm 0.0 W/m2
17:49 19.1 °C -0.9 °C 1019.5 hPa WSW 11.1 km/h 16.1 km/h 26% 0 mm 0.0 W/m2
18:04 18.6 °C -0.8 °C 1019.5 hPa WSW 16.3 km/h 19.3 km/h 27% 0 mm 0.0 W/m2
18:17 18 °C -2.3 °C 1019.9 hPa WSW 13 km/h 16.1 km/h 25% 0 mm 0.0 W/m2
18:25 17.8 °C -2.5 °C 1019.9 hPa WSW 13 km/h 16.1 km/h 25% 0 mm 0.0 W/m2
19:01 16.9 °C -2.7 °C 1020.2 hPa WSW 9.7 km/h 16.1 km/h 26% 0 mm 0.0 W/m2
20:40 14.6 °C -1.9 °C 1021.2 hPa WSW 13 km/h 19.3 km/h 32% 0 mm 0.0 W/m2
21:15 14.5 °C 0.7 °C 1021.2 hPa SW 11.1 km/h 19.3 km/h 39% 0 mm 0.0 W/m2
21:25 14.8 °C -0.5 °C 1021.2 hPa SW 11.1 km/h 11.3 km/h 35% 0 mm 0.0 W/m2
21:36 13.8 °C -0.3 °C 1021.2 hPa SW 9.7 km/h 11.3 km/h 38% 0 mm 0.0 W/m2
21:56 13.1 °C -0.2 °C 1021.6 hPa SW 9.7 km/h 12.9 km/h 40% 0 mm 0.0 W/m2
22:17 12.9 °C 2.2 °C 1021.6 hPa SW 13 km/h 17.7 km/h 48% 0 mm 0.0 W/m2
22:30 12.6 °C 3.5 °C 1021.2 hPa SW 11.1 km/h 16.1 km/h 54% 0 mm 0.0 W/m2
22:37 12.4 °C 4.1 °C 1021.2 hPa SW 11.1 km/h 16.1 km/h 57% 0 mm 0.0 W/m2
Canyon Roadhouse, Fishriver Canyon, Namibia
Compliments of Weather Underground - 2.25 mb